Terminal Aerodrome Forecast
Issued by NWS

Home | Current Version | Previous Version | Graphics & Text | Print | Product List | Glossary On
Versions: 1 2 3 4 5 6 7 8 9 10 11 12 13 14 15
502
FTUS45 KGGW 262320
TAFSDY
TAF
KSDY 262320Z 2700/2724 08006KT 6SM -SHRASN SCT009 OVC013
     FM270600 05004KT 6SM BR OVC003
     FM271200 04006KT 5SM -RA BR OVC003
     FM271700 05008KT 6SM -RA BR OVC008
      AMD LTD TO CLD VIS AND WIND=

USA.gov is the U.S. government's official web portal to all federal, state and local government web resources and services.